sensor_id;sensor_type;location;lat;lon;timestamp;pressure;altitude;pressure_sealevel;temperature;humidity
21096;BME280;10706;49.036;12.112;2023-02-17T00:01:20;98641.56;;;-0.69;100.00
21096;BME280;10706;49.036;12.112;2023-02-17T00:03:48;98643.50;;;-0.81;100.00
21096;BME280;10706;49.036;12.112;2023-02-17T00:06:17;98639.50;;;-0.85;100.00
21096;BME280;10706;49.036;12.112;2023-02-17T00:08:43;98641.84;;;-0.91;100.00
21096;BME280;10706;49.036;12.112;2023-02-17T00:11:09;98645.44;;;-0.92;100.00
21096;BME280;10706;49.036;12.112;2023-02-17T00:13:35;98647.09;;;-0.91;100.00
21096;BME280;10706;49.036;12.112;2023-02-17T00:16:17;98636.06;;;-0.95;100.00
21096;BME280;10706;49.036;12.112;2023-02-17T00:18:43;98629.03;;;-1.04;100.00
21096;BME280;10706;49.036;12.112;2023-02-17T00:21:19;98624.91;;;-1.07;100.00
21096;BME280;10706;49.036;12.112;2023-02-17T00:23:46;98638.28;;;-1.10;100.00
21096;BME280;10706;49.036;12.112;2023-02-17T00:26:13;98635.78;;;-1.11;100.00
21096;BME280;10706;49.036;12.112;2023-02-17T00:28:39;98624.22;;;-1.09;100.00
21096;BME280;10706;49.036;12.112;2023-02-17T00:31:12;98627.94;;;-1.11;100.00
21096;BME280;10706;49.036;12.112;2023-02-17T00:33:39;98633.72;;;-1.08;100.00
21096;BME280;10706;49.036;12.112;2023-02-17T00:36:09;98637.47;;;-1.10;100.00
21096;BME280;10706;49.036;12.112;2023-02-17T00:38:35;98637.47;;;-1.10;100.00
21096;BME280;10706;49.036;12.112;2023-02-17T00:41:01;98644.22;;;-1.08;100.00
21096;BME280;10706;49.036;12.112;2023-02-17T00:43:27;98646.69;;;-1.06;100.00
21096;BME280;10706;49.036;12.112;2023-02-17T00:45:53;98650.25;;;-1.07;100.00
21096;BME280;10706;49.036;12.112;2023-02-17T00:48:19;98646.44;;;-1.03;100.00
21096;BME280;10706;49.036;12.112;2023-02-17T00:50:45;98645.72;;;-1.05;100.00
21096;BME280;10706;49.036;12.112;2023-02-17T00:53:11;98652.06;;;-0.98;100.00
21096;BME280;10706;49.036;12.112;2023-02-17T00:55:37;98640.88;;;-1.00;100.00
21096;BME280;10706;49.036;12.112;2023-02-17T00:58:03;98646.94;;;-1.00;100.00
21096;BME280;10706;49.036;12.112;2023-02-17T01:00:28;98650.56;;;-1.01;100.00
21096;BME280;10706;49.036;12.112;2023-02-17T01:02:54;98641.31;;;-0.95;100.00
21096;BME280;10706;49.036;12.112;2023-02-17T01:05:20;98637.69;;;-0.94;100.00
21096;BME280;10706;49.036;12.112;2023-02-17T01:07:45;98638.69;;;-0.95;100.00
21096;BME280;10706;49.036;12.112;2023-02-17T01:10:11;98630.69;;;-0.93;100.00
21096;BME280;10706;49.036;12.112;2023-02-17T01:12:37;98629.56;;;-0.91;100.00
21096;BME280;10706;49.036;12.112;2023-02-17T01:15:16;98633.84;;;-0.90;100.00
21096;BME280;10706;49.036;12.112;2023-02-17T01:17:42;98628.72;;;-0.82;100.00
21096;BME280;10706;49.036;12.112;2023-02-17T01:20:08;98618.66;;;-0.76;100.00
21096;BME280;10706;49.036;12.112;2023-02-17T01:22:33;98609.81;;;-0.75;100.00
21096;BME280;10706;49.036;12.112;2023-02-17T01:24:59;98613.81;;;-0.81;100.00
21096;BME280;10706;49.036;12.112;2023-02-17T01:27:25;98608.88;;;-0.84;100.00
21096;BME280;10706;49.036;12.112;2023-02-17T01:29:51;98619.34;;;-0.94;100.00
21096;BME280;10706;49.036;12.112;2023-02-17T01:32:16;98615.78;;;-0.93;100.00
21096;BME280;10706;49.036;12.112;2023-02-17T01:34:42;98614.81;;;-0.92;100.00
21096;BME280;10706;49.036;12.112;2023-02-17T01:37:08;98615.50;;;-0.90;100.00
21096;BME280;10706;49.036;12.112;2023-02-17T01:39:33;98609.25;;;-0.79;100.00
21096;BME280;10706;49.036;12.112;2023-02-17T01:41:59;98611.19;;;-0.81;100.00
21096;BME280;10706;49.036;12.112;2023-02-17T01:44:25;98613.81;;;-0.81;100.00
21096;BME280;10706;49.036;12.112;2023-02-17T01:46:54;98605.97;;;-0.81;100.00
21096;BME280;10706;49.036;12.112;2023-02-17T01:49:30;98613.69;;;-0.80;100.00
21096;BME280;10706;49.036;12.112;2023-02-17T01:52:11;98608.44;;;-0.80;100.00
21096;BME280;10706;49.036;12.112;2023-02-17T01:54:54;98610.50;;;-0.73;100.00
21096;BME280;10706;49.036;12.112;2023-02-17T01:57:26;98601.09;;;-0.66;100.00
21096;BME280;10706;49.036;12.112;2023-02-17T01:59:53;98587.72;;;-0.63;100.00
21096;BME280;10706;49.036;12.112;2023-02-17T02:02:19;98579.16;;;-0.65;100.00
21096;BME280;10706;49.036;12.112;2023-02-17T02:04:48;98587.56;;;-0.71;100.00
21096;BME280;10706;49.036;12.112;2023-02-17T02:07:32;98574.69;;;-0.55;100.00
21096;BME280;10706;49.036;12.112;2023-02-17T02:09:59;98577.63;;;-0.58;100.00
21096;BME280;10706;49.036;12.112;2023-02-17T02:12:28;98567.81;;;-0.56;100.00
21096;BME280;10706;49.036;12.112;2023-02-17T02:15:02;98566.47;;;-0.60;100.00
21096;BME280;10706;49.036;12.112;2023-02-17T02:17:52;98562.16;;;-0.61;100.00
21096;BME280;10706;49.036;12.112;2023-02-17T02:20:46;98558.28;;;-0.57;100.00
21096;BME280;10706;49.036;12.112;2023-02-17T02:23:45;98547.94;;;-0.59;100.00
21096;BME280;10706;49.036;12.112;2023-02-17T02:26:41;98543.53;;;-0.58;100.00
21096;BME280;10706;49.036;12.112;2023-02-17T02:34:56;98527.13;;;-0.60;100.00
21096;BME280;10706;49.036;12.112;2023-02-17T02:37:51;98527.66;;;-0.66;100.00
21096;BME280;10706;49.036;12.112;2023-02-17T02:40:23;98520.47;;;-0.64;100.00
21096;BME280;10706;49.036;12.112;2023-02-17T02:42:50;98526.28;;;-0.61;100.00
21096;BME280;10706;49.036;12.112;2023-02-17T02:45:17;98525.34;;;-0.69;100.00
21096;BME280;10706;49.036;12.112;2023-02-17T02:47:50;98524.72;;;-0.53;100.00
21096;BME280;10706;49.036;12.112;2023-02-17T03:01:54;98523.78;;;-0.52;100.00
21096;BME280;10706;49.036;12.112;2023-02-17T03:07:26;98512.22;;;-0.42;100.00
21096;BME280;10706;49.036;12.112;2023-02-17T03:09:55;98518.03;;;-0.38;100.00
21096;BME280;10706;49.036;12.112;2023-02-17T03:12:23;98514.38;;;-0.27;100.00
21096;BME280;10706;49.036;12.112;2023-02-17T03:14:59;98511.84;;;-0.19;100.00
21096;BME280;10706;49.036;12.112;2023-02-17T03:17:25;98504.41;;;-0.24;100.00
21096;BME280;10706;49.036;12.112;2023-02-17T03:19:54;98510.47;;;-0.23;100.00
21096;BME280;10706;49.036;12.112;2023-02-17T03:22:30;98508.53;;;-0.21;100.00
21096;BME280;10706;49.036;12.112;2023-02-17T03:24:58;98505.34;;;-0.15;100.00
21096;BME280;10706;49.036;12.112;2023-02-17T03:27:26;98519.72;;;-0.19;100.00
21096;BME280;10706;49.036;12.112;2023-02-17T03:29:52;98499.09;;;-0.14;100.00
21096;BME280;10706;49.036;12.112;2023-02-17T03:32:19;98490.94;;;-0.11;100.00
21096;BME280;10706;49.036;12.112;2023-02-17T03:34:45;98480.31;;;-0.09;100.00
21096;BME280;10706;49.036;12.112;2023-02-17T03:37:11;98491.91;;;-0.12;100.00
21096;BME280;10706;49.036;12.112;2023-02-17T03:39:36;98485.84;;;-0.12;100.00
21096;BME280;10706;49.036;12.112;2023-02-17T03:42:02;98493.25;;;-0.08;100.00
21096;BME280;10706;49.036;12.112;2023-02-17T03:44:28;98486.38;;;-0.09;100.00
21096;BME280;10706;49.036;12.112;2023-02-17T03:46:54;98489.97;;;-0.10;100.00
21096;BME280;10706;49.036;12.112;2023-02-17T03:49:20;98486.22;;;-0.07;100.00
21096;BME280;10706;49.036;12.112;2023-02-17T03:51:45;98495.38;;;0.07;100.00
21096;BME280;10706;49.036;12.112;2023-02-17T03:54:11;98499.72;;;-0.02;100.00
21096;BME280;10706;49.036;12.112;2023-02-17T03:56:37;98498.22;;;-0.05;100.00
21096;BME280;10706;49.036;12.112;2023-02-17T03:59:03;98495.22;;;-0.10;100.00
21096;BME280;10706;49.036;12.112;2023-02-17T04:01:29;98496.06;;;-0.09;100.00
21096;BME280;10706;49.036;12.112;2023-02-17T04:03:55;98502.66;;;-0.05;100.00
21096;BME280;10706;49.036;12.112;2023-02-17T04:06:21;98497.53;;;-0.07;100.00
21096;BME280;10706;49.036;12.112;2023-02-17T04:08:47;98497.94;;;-0.02;100.00
21096;BME280;10706;49.036;12.112;2023-02-17T04:11:13;98504.25;;;0.06;100.00
21096;BME280;10706;49.036;12.112;2023-02-17T04:13:39;98510.44;;;0.05;100.00
21096;BME280;10706;49.036;12.112;2023-02-17T04:16:07;98494.69;;;0.05;100.00
21096;BME280;10706;49.036;12.112;2023-02-17T04:18:34;98504.66;;;0.01;100.00
21096;BME280;10706;49.036;12.112;2023-02-17T04:20:59;98507.00;;;0.04;100.00
21096;BME280;10706;49.036;12.112;2023-02-17T04:23:25;98503.72;;;0.02;100.00
21096;BME280;10706;49.036;12.112;2023-02-17T04:25:51;98500.34;;;0.10;100.00
21096;BME280;10706;49.036;12.112;2023-02-17T04:28:17;98513.09;;;0.05;100.00
21096;BME280;10706;49.036;12.112;2023-02-17T04:30:48;98507.09;;;0.12;100.00
21096;BME280;10706;49.036;12.112;2023-02-17T04:33:15;98508.34;;;0.08;100.00
21096;BME280;10706;49.036;12.112;2023-02-17T04:35:41;98511.13;;;0.07;100.00
21096;BME280;10706;49.036;12.112;2023-02-17T04:38:08;98504.53;;;0.03;100.00
21096;BME280;10706;49.036;12.112;2023-02-17T04:40:35;98505.72;;;0.08;100.00
21096;BME280;10706;49.036;12.112;2023-02-17T04:43:02;98495.63;;;0.13;100.00
21096;BME280;10706;49.036;12.112;2023-02-17T04:45:28;98502.34;;;0.16;100.00
21096;BME280;10706;49.036;12.112;2023-02-17T04:47:53;98510.00;;;0.09;100.00
21096;BME280;10706;49.036;12.112;2023-02-17T04:50:20;98496.81;;;0.19;100.00
21096;BME280;10706;49.036;12.112;2023-02-17T04:52:46;98500.88;;;0.13;100.00
21096;BME280;10706;49.036;12.112;2023-02-17T04:55:11;98487.81;;;0.22;100.00
21096;BME280;10706;49.036;12.112;2023-02-17T04:57:37;98491.72;;;0.17;100.00
21096;BME280;10706;49.036;12.112;2023-02-17T05:00:04;98478.13;;;0.22;100.00
21096;BME280;10706;49.036;12.112;2023-02-17T05:02:30;98482.94;;;0.27;100.00
21096;BME280;10706;49.036;12.112;2023-02-17T05:04:56;98481.78;;;0.29;100.00
21096;BME280;10706;49.036;12.112;2023-02-17T05:07:22;98489.38;;;0.32;100.00
21096;BME280;10706;49.036;12.112;2023-02-17T05:09:48;98488.25;;;0.35;100.00
21096;BME280;10706;49.036;12.112;2023-02-17T05:12:14;98476.78;;;0.36;100.00
21096;BME280;10706;49.036;12.112;2023-02-17T05:14:40;98479.16;;;0.29;100.00
21096;BME280;10706;49.036;12.112;2023-02-17T05:17:05;98468.00;;;0.27;100.00
21096;BME280;10706;49.036;12.112;2023-02-17T05:19:31;98472.63;;;0.33;100.00
21096;BME280;10706;49.036;12.112;2023-02-17T05:21:57;98467.59;;;0.40;100.00
21096;BME280;10706;49.036;12.112;2023-02-17T05:24:23;98456.72;;;0.53;100.00
21096;BME280;10706;49.036;12.112;2023-02-17T05:26:48;98469.63;;;0.46;100.00
21096;BME280;10706;49.036;12.112;2023-02-17T05:29:14;98460.91;;;0.46;100.00
21096;BME280;10706;49.036;12.112;2023-02-17T05:31:40;98452.00;;;0.38;100.00
21096;BME280;10706;49.036;12.112;2023-02-17T05:34:05;98446.75;;;0.38;100.00
21096;BME280;10706;49.036;12.112;2023-02-17T05:36:31;98460.25;;;0.44;100.00
21096;BME280;10706;49.036;12.112;2023-02-17T05:38:57;98457.91;;;0.41;100.00
21096;BME280;10706;49.036;12.112;2023-02-17T05:41:23;98463.22;;;0.49;100.00
21096;BME280;10706;49.036;12.112;2023-02-17T05:43:48;98460.09;;;0.45;100.00
21096;BME280;10706;49.036;12.112;2023-02-17T05:46:14;98456.78;;;0.43;100.00
21096;BME280;10706;49.036;12.112;2023-02-17T05:48:40;98452.38;;;0.44;100.00
21096;BME280;10706;49.036;12.112;2023-02-17T05:51:06;98466.22;;;0.54;100.00
21096;BME280;10706;49.036;12.112;2023-02-17T05:53:32;98459.84;;;0.56;100.00
21096;BME280;10706;49.036;12.112;2023-02-17T05:55:57;98449.66;;;0.53;100.00
21096;BME280;10706;49.036;12.112;2023-02-17T05:58:23;98464.59;;;0.53;100.00
21096;BME280;10706;49.036;12.112;2023-02-17T06:00:49;98456.97;;;0.42;100.00
21096;BME280;10706;49.036;12.112;2023-02-17T06:03:15;98468.13;;;0.44;100.00
21096;BME280;10706;49.036;12.112;2023-02-17T06:05:41;98481.78;;;0.47;100.00
21096;BME280;10706;49.036;12.112;2023-02-17T06:08:06;98475.09;;;0.53;100.00
21096;BME280;10706;49.036;12.112;2023-02-17T06:10:32;98468.19;;;0.52;100.00
21096;BME280;10706;49.036;12.112;2023-02-17T06:12:58;98475.63;;;0.56;100.00
21096;BME280;10706;49.036;12.112;2023-02-17T06:15:24;98466.75;;;0.57;100.00
21096;BME280;10706;49.036;12.112;2023-02-17T06:17:49;98466.31;;;0.62;100.00
21096;BME280;10706;49.036;12.112;2023-02-17T06:20:15;98462.69;;;0.63;100.00
21096;BME280;10706;49.036;12.112;2023-02-17T06:22:42;98457.25;;;0.83;100.00
21096;BME280;10706;49.036;12.112;2023-02-17T06:25:09;98460.78;;;0.73;100.00
21096;BME280;10706;49.036;12.112;2023-02-17T06:27:34;98464.44;;;0.81;100.00
21096;BME280;10706;49.036;12.112;2023-02-17T06:30:00;98463.06;;;0.68;100.00
21096;BME280;10706;49.036;12.112;2023-02-17T06:32:26;98456.22;;;0.75;100.00
21096;BME280;10706;49.036;12.112;2023-02-17T06:34:52;98460.16;;;0.80;100.00
21096;BME280;10706;49.036;12.112;2023-02-17T06:37:18;98459.13;;;0.72;100.00
21096;BME280;10706;49.036;12.112;2023-02-17T06:39:44;98467.63;;;0.66;100.00
21096;BME280;10706;49.036;12.112;2023-02-17T06:42:10;98455.53;;;0.73;100.00
21096;BME280;10706;49.036;12.112;2023-02-17T06:44:35;98456.75;;;0.87;100.00
21096;BME280;10706;49.036;12.112;2023-02-17T06:47:01;98453.63;;;0.84;100.00
21096;BME280;10706;49.036;12.112;2023-02-17T06:49:27;98457.78;;;0.94;100.00
21096;BME280;10706;49.036;12.112;2023-02-17T06:51:53;98447.78;;;0.98;100.00
21096;BME280;10706;49.036;12.112;2023-02-17T06:54:18;98457.69;;;1.04;100.00
21096;BME280;10706;49.036;12.112;2023-02-17T06:56:44;98453.09;;;1.06;100.00
21096;BME280;10706;49.036;12.112;2023-02-17T06:59:10;98461.59;;;1.00;100.00
21096;BME280;10706;49.036;12.112;2023-02-17T07:01:36;98459.81;;;1.09;100.00
21096;BME280;10706;49.036;12.112;2023-02-17T07:04:01;98462.78;;;1.06;100.00
21096;BME280;10706;49.036;12.112;2023-02-17T07:06:27;98457.69;;;1.04;100.00
21096;BME280;10706;49.036;12.112;2023-02-17T07:08:53;98455.41;;;1.09;100.00
21096;BME280;10706;49.036;12.112;2023-02-17T07:11:19;98444.25;;;1.15;100.00
21096;BME280;10706;49.036;12.112;2023-02-17T07:13:46;98455.28;;;1.19;100.00
21096;BME280;10706;49.036;12.112;2023-02-17T07:16:13;98456.16;;;1.28;100.00
21096;BME280;10706;49.036;12.112;2023-02-17T07:18:40;98454.41;;;1.45;100.00
21096;BME280;10706;49.036;12.112;2023-02-17T07:21:07;98456.25;;;1.52;100.00
21096;BME280;10706;49.036;12.112;2023-02-17T07:23:34;98466.47;;;1.64;100.00
21096;BME280;10706;49.036;12.112;2023-02-17T07:26:07;98454.66;;;1.76;100.00
21096;BME280;10706;49.036;12.112;2023-02-17T07:28:34;98460.91;;;1.75;100.00
21096;BME280;10706;49.036;12.112;2023-02-17T07:31:08;98460.25;;;1.81;99.49
21096;BME280;10706;49.036;12.112;2023-02-17T07:33:35;98461.59;;;1.85;100.00
21096;BME280;10706;49.036;12.112;2023-02-17T07:36:09;98464.56;;;1.99;100.00
21096;BME280;10706;49.036;12.112;2023-02-17T07:38:36;98464.91;;;2.04;100.00
21096;BME280;10706;49.036;12.112;2023-02-17T07:41:12;98463.59;;;2.08;99.94
21096;BME280;10706;49.036;12.112;2023-02-17T07:43:38;98452.59;;;2.21;98.85
21096;BME280;10706;49.036;12.112;2023-02-17T07:46:05;98456.72;;;2.31;98.07
21096;BME280;10706;49.036;12.112;2023-02-17T07:48:31;98454.25;;;2.46;97.77
21096;BME280;10706;49.036;12.112;2023-02-17T07:51:11;98454.72;;;2.58;98.36
21096;BME280;10706;49.036;12.112;2023-02-17T07:53:37;98452.38;;;2.88;97.25
21096;BME280;10706;49.036;12.112;2023-02-17T07:56:06;98454.13;;;3.12;95.20
21096;BME280;10706;49.036;12.112;2023-02-17T07:58:33;98463.03;;;3.11;94.85
21096;BME280;10706;49.036;12.112;2023-02-17T08:01:11;98457.63;;;3.04;94.41
21096;BME280;10706;49.036;12.112;2023-02-17T08:03:37;98467.34;;;3.12;94.72
21096;BME280;10706;49.036;12.112;2023-02-17T08:06:07;98462.88;;;3.13;95.76
21096;BME280;10706;49.036;12.112;2023-02-17T08:08:33;98468.31;;;3.11;95.71
21096;BME280;10706;49.036;12.112;2023-02-17T08:11:17;98457.63;;;3.04;95.39
21096;BME280;10706;49.036;12.112;2023-02-17T08:14:01;98459.28;;;2.97;95.31
21096;BME280;10706;49.036;12.112;2023-02-17T08:16:27;98467.53;;;3.02;97.05
21096;BME280;10706;49.036;12.112;2023-02-17T08:18:54;98451.66;;;3.10;94.47
21096;BME280;10706;49.036;12.112;2023-02-17T08:21:22;98455.34;;;3.41;95.73
21096;BME280;10706;49.036;12.112;2023-02-17T08:23:48;98457.22;;;3.63;92.65
21096;BME280;10706;49.036;12.112;2023-02-17T08:26:14;98457.50;;;3.45;93.45
21096;BME280;10706;49.036;12.112;2023-02-17T08:28:40;98467.19;;;3.53;95.32
21096;BME280;10706;49.036;12.112;2023-02-17T08:31:13;98462.81;;;3.68;94.48
21096;BME280;10706;49.036;12.112;2023-02-17T08:33:39;98451.16;;;3.86;93.54
21096;BME280;10706;49.036;12.112;2023-02-17T08:36:06;98454.34;;;3.73;94.28
21096;BME280;10706;49.036;12.112;2023-02-17T08:38:33;98448.44;;;3.71;93.72
21096;BME280;10706;49.036;12.112;2023-02-17T08:40:59;98457.06;;;3.65;93.83
21096;BME280;10706;49.036;12.112;2023-02-17T08:43:25;98458.09;;;3.87;93.25
21096;BME280;10706;49.036;12.112;2023-02-17T08:45:50;98459.38;;;3.91;94.19
21096;BME280;10706;49.036;12.112;2023-02-17T08:48:16;98462.44;;;3.80;93.09
21096;BME280;10706;49.036;12.112;2023-02-17T08:50:42;98455.63;;;3.85;94.51
21096;BME280;10706;49.036;12.112;2023-02-17T08:53:11;98468.78;;;3.94;93.83
21096;BME280;10706;49.036;12.112;2023-02-17T08:55:36;98468.19;;;3.83;94.14
21096;BME280;10706;49.036;12.112;2023-02-17T08:58:02;98469.91;;;3.99;94.50
21096;BME280;10706;49.036;12.112;2023-02-17T09:00:28;98473.44;;;4.15;93.99
21096;BME280;10706;49.036;12.112;2023-02-17T09:02:53;98473.22;;;4.24;92.51
21096;BME280;10706;49.036;12.112;2023-02-17T09:05:19;98469.16;;;4.37;93.11
21096;BME280;10706;49.036;12.112;2023-02-17T09:07:45;98471.69;;;4.30;92.57
21096;BME280;10706;49.036;12.112;2023-02-17T09:10:12;98473.19;;;4.47;92.32
21096;BME280;10706;49.036;12.112;2023-02-17T09:12:38;98474.13;;;4.55;92.01
21096;BME280;10706;49.036;12.112;2023-02-17T09:15:04;98473.50;;;4.53;92.73
21096;BME280;10706;49.036;12.112;2023-02-17T09:17:30;98466.22;;;4.55;90.97
21096;BME280;10706;49.036;12.112;2023-02-17T09:19:56;98472.78;;;4.59;90.80
21096;BME280;10706;49.036;12.112;2023-02-17T09:22:22;98464.25;;;4.72;91.59
21096;BME280;10706;49.036;12.112;2023-02-17T09:24:47;98460.94;;;4.70;91.91
21096;BME280;10706;49.036;12.112;2023-02-17T09:27:13;98460.25;;;4.91;92.11
21096;BME280;10706;49.036;12.112;2023-02-17T09:29:39;98460.72;;;4.94;90.37
21096;BME280;10706;49.036;12.112;2023-02-17T09:32:08;98446.13;;;5.13;89.97
21096;BME280;10706;49.036;12.112;2023-02-17T09:34:38;98448.75;;;5.43;90.61
21096;BME280;10706;49.036;12.112;2023-02-17T09:37:10;98450.97;;;5.76;89.24
21096;BME280;10706;49.036;12.112;2023-02-17T09:39:36;98451.59;;;5.78;88.36
21096;BME280;10706;49.036;12.112;2023-02-17T09:42:02;98456.97;;;5.99;88.45
21096;BME280;10706;49.036;12.112;2023-02-17T09:44:42;98451.00;;;6.12;87.18
21096;BME280;10706;49.036;12.112;2023-02-17T09:47:28;98457.25;;;6.26;86.49
21096;BME280;10706;49.036;12.112;2023-02-17T09:50:06;98448.97;;;6.36;87.08
21096;BME280;10706;49.036;12.112;2023-02-17T09:52:55;98449.06;;;6.71;86.79
21096;BME280;10706;49.036;12.112;2023-02-17T09:55:35;98440.13;;;7.07;85.26
21096;BME280;10706;49.036;12.112;2023-02-17T09:58:12;98436.63;;;7.41;82.95
21096;BME280;10706;49.036;12.112;2023-02-17T10:00:51;98438.13;;;7.64;81.52
21096;BME280;10706;49.036;12.112;2023-02-17T10:03:36;98440.59;;;7.65;81.03
21096;BME280;10706;49.036;12.112;2023-02-17T10:09:31;98446.09;;;7.57;81.64
21096;BME280;10706;49.036;12.112;2023-02-17T10:12:13;98443.72;;;7.75;81.85
21096;BME280;10706;49.036;12.112;2023-02-17T10:15:00;98449.88;;;7.89;81.08
21096;BME280;10706;49.036;12.112;2023-02-17T10:17:33;98452.34;;;7.97;80.28
21096;BME280;10706;49.036;12.112;2023-02-17T10:20:54;98451.53;;;7.97;80.57
21096;BME280;10706;49.036;12.112;2023-02-17T10:23:24;98453.22;;;8.11;80.44
21096;BME280;10706;49.036;12.112;2023-02-17T10:26:18;98439.28;;;8.03;81.21
21096;BME280;10706;49.036;12.112;2023-02-17T10:28:58;98443.03;;;8.28;81.09
21096;BME280;10706;49.036;12.112;2023-02-17T10:31:52;98444.09;;;8.67;78.71
21096;BME280;10706;49.036;12.112;2023-02-17T10:35:28;98437.72;;;8.48;79.26
21096;BME280;10706;49.036;12.112;2023-02-17T10:37:48;98429.94;;;8.80;78.55
21096;BME280;10706;49.036;12.112;2023-02-17T10:40:25;98420.50;;;9.04;78.29
21096;BME280;10706;49.036;12.112;2023-02-17T10:43:01;98424.59;;;9.07;77.29
21096;BME280;10706;49.036;12.112;2023-02-17T10:45:42;98416.22;;;9.03;77.80
21096;BME280;10706;49.036;12.112;2023-02-17T10:48:21;98411.91;;;8.95;78.40
21096;BME280;10706;49.036;12.112;2023-02-17T10:50:49;98409.22;;;9.02;78.21
21096;BME280;10706;49.036;12.112;2023-02-17T10:53:17;98411.72;;;8.84;76.44
21096;BME280;10706;49.036;12.112;2023-02-17T11:01:19;98406.94;;;9.19;77.17
21096;BME280;10706;49.036;12.112;2023-02-17T11:04:04;98404.41;;;9.44;75.50
21096;BME280;10706;49.036;12.112;2023-02-17T11:06:30;98413.34;;;9.57;74.96
21096;BME280;10706;49.036;12.112;2023-02-17T11:09:01;98394.81;;;9.75;73.47
21096;BME280;10706;49.036;12.112;2023-02-17T11:11:31;98397.41;;;9.88;73.50
21096;BME280;10706;49.036;12.112;2023-02-17T11:14:20;98392.03;;;9.95;72.77
21096;BME280;10706;49.036;12.112;2023-02-17T11:16:57;98392.59;;;10.04;72.28
21096;BME280;10706;49.036;12.112;2023-02-17T11:19:34;98389.88;;;10.10;71.34
21096;BME280;10706;49.036;12.112;2023-02-17T11:22:03;98391.69;;;10.17;71.21
21096;BME280;10706;49.036;12.112;2023-02-17T11:24:32;98381.47;;;10.14;71.88
21096;BME280;10706;49.036;12.112;2023-02-17T11:27:09;98369.47;;;10.23;70.76
21096;BME280;10706;49.036;12.112;2023-02-17T11:29:35;98359.41;;;10.25;70.37
21096;BME280;10706;49.036;12.112;2023-02-17T11:32:03;98360.59;;;10.29;70.56
21096;BME280;10706;49.036;12.112;2023-02-17T11:34:34;98364.06;;;10.36;70.96
21096;BME280;10706;49.036;12.112;2023-02-17T11:39:48;98362.25;;;10.55;70.54
21096;BME280;10706;49.036;12.112;2023-02-17T11:42:23;98357.22;;;10.65;70.40
21096;BME280;10706;49.036;12.112;2023-02-17T11:44:49;98352.03;;;10.70;69.33
21096;BME280;10706;49.036;12.112;2023-02-17T11:48:02;98350.03;;;10.84;68.06
21096;BME280;10706;49.036;12.112;2023-02-17T11:50:55;98356.69;;;11.00;68.84
21096;BME280;10706;49.036;12.112;2023-02-17T11:56:39;98354.88;;;11.13;68.24
21096;BME280;10706;49.036;12.112;2023-02-17T12:02:14;98347.00;;;10.99;68.62
21096;BME280;10706;49.036;12.112;2023-02-17T12:04:51;98352.44;;;10.93;68.64
21096;BME280;10706;49.036;12.112;2023-02-17T12:10:38;98342.25;;;11.01;69.23
21096;BME280;10706;49.036;12.112;2023-02-17T12:19:03;98325.84;;;11.16;68.85
21096;BME280;10706;49.036;12.112;2023-02-17T12:34:05;98313.47;;;11.52;68.86
21096;BME280;10706;49.036;12.112;2023-02-17T12:36:37;98313.34;;;11.47;69.23
21096;BME280;10706;49.036;12.112;2023-02-17T12:39:37;98305.63;;;11.39;68.94
21096;BME280;10706;49.036;12.112;2023-02-17T12:42:29;98308.25;;;11.27;69.44
21096;BME280;10706;49.036;12.112;2023-02-17T12:45:17;98306.00;;;11.24;69.65
21096;BME280;10706;49.036;12.112;2023-02-17T12:48:00;98298.38;;;11.27;69.00
21096;BME280;10706;49.036;12.112;2023-02-17T12:50:57;98304.97;;;11.25;69.21
21096;BME280;10706;49.036;12.112;2023-02-17T12:53:59;98299.19;;;11.28;70.27
21096;BME280;10706;49.036;12.112;2023-02-17T12:57:21;98305.06;;;11.18;71.01
21096;BME280;10706;49.036;12.112;2023-02-17T12:59:50;98296.63;;;11.03;72.11
21096;BME280;10706;49.036;12.112;2023-02-17T13:02:21;98296.19;;;11.06;71.44
21096;BME280;10706;49.036;12.112;2023-02-17T13:04:51;98294.00;;;11.15;71.62
21096;BME280;10706;49.036;12.112;2023-02-17T13:07:41;98297.88;;;11.19;72.10
21096;BME280;10706;49.036;12.112;2023-02-17T13:10:36;98314.13;;;11.17;73.25
21096;BME280;10706;49.036;12.112;2023-02-17T13:13:11;98310.28;;;10.95;76.64
21096;BME280;10706;49.036;12.112;2023-02-17T13:15:44;98306.28;;;10.67;78.59
21096;BME280;10706;49.036;12.112;2023-02-17T13:23:38;98303.44;;;10.80;78.00
21096;BME280;10706;49.036;12.112;2023-02-17T13:28:46;98310.13;;;10.89;78.13
21096;BME280;10706;49.036;12.112;2023-02-17T13:31:21;98307.47;;;10.89;78.44
21096;BME280;10706;49.036;12.112;2023-02-17T13:33:57;98314.13;;;10.80;79.87
21096;BME280;10706;49.036;12.112;2023-02-17T13:41:48;98315.97;;;10.11;86.29
21096;BME280;10706;49.036;12.112;2023-02-17T13:44:29;98304.31;;;10.05;86.73
21096;BME280;10706;49.036;12.112;2023-02-17T13:47:27;98308.69;;;10.00;87.67
21096;BME280;10706;49.036;12.112;2023-02-17T13:49:55;98315.28;;;9.97;88.99
21096;BME280;10706;49.036;12.112;2023-02-17T13:52:30;98328.22;;;9.93;88.78
21096;BME280;10706;49.036;12.112;2023-02-17T13:55:03;98331.97;;;9.86;89.46
21096;BME280;10706;49.036;12.112;2023-02-17T13:57:33;98315.81;;;9.81;90.76
21096;BME280;10706;49.036;12.112;2023-02-17T14:03:00;98316.59;;;9.81;90.24
21096;BME280;10706;49.036;12.112;2023-02-17T14:05:41;98317.00;;;9.85;90.06
21096;BME280;10706;49.036;12.112;2023-02-17T14:08:33;98316.56;;;9.88;89.96
21096;BME280;10706;49.036;12.112;2023-02-17T14:11:20;98315.69;;;9.94;89.53
21096;BME280;10706;49.036;12.112;2023-02-17T14:13:50;98311.81;;;9.97;90.20
21096;BME280;10706;49.036;12.112;2023-02-17T14:16:35;98317.06;;;10.03;89.06
21096;BME280;10706;49.036;12.112;2023-02-17T14:19:08;98316.66;;;10.06;89.44
21096;BME280;10706;49.036;12.112;2023-02-17T14:21:40;98320.91;;;10.14;88.79
21096;BME280;10706;49.036;12.112;2023-02-17T14:24:33;98314.69;;;10.20;87.89
21096;BME280;10706;49.036;12.112;2023-02-17T14:27:04;98309.56;;;10.19;87.57